sensor_id;sensor_type;location;lat;lon;timestamp;temperature;humidity
8832;DHT22;4452;50.756;4.472;2023-03-23T00:00:07;12.90;99.90
8832;DHT22;4452;50.756;4.472;2023-03-23T00:02:34;12.90;99.90
8832;DHT22;4452;50.756;4.472;2023-03-23T00:05:07;12.80;99.90
8832;DHT22;4452;50.756;4.472;2023-03-23T00:07:34;12.80;99.90
8832;DHT22;4452;50.756;4.472;2023-03-23T00:10:00;12.80;99.90
8832;DHT22;4452;50.756;4.472;2023-03-23T00:12:29;12.80;99.90
8832;DHT22;4452;50.756;4.472;2023-03-23T00:15:06;12.80;99.90
8832;DHT22;4452;50.756;4.472;2023-03-23T00:17:34;12.80;99.90
8832;DHT22;4452;50.756;4.472;2023-03-23T00:20:00;12.70;99.90
8832;DHT22;4452;50.756;4.472;2023-03-23T00:22:29;12.70;99.90
8832;DHT22;4452;50.756;4.472;2023-03-23T00:24:54;12.70;99.90
8832;DHT22;4452;50.756;4.472;2023-03-23T00:27:22;12.70;99.90
8832;DHT22;4452;50.756;4.472;2023-03-23T00:29:49;12.70;99.90
8832;DHT22;4452;50.756;4.472;2023-03-23T00:32:19;12.60;99.90
8832;DHT22;4452;50.756;4.472;2023-03-23T00:34:46;12.60;99.90
8832;DHT22;4452;50.756;4.472;2023-03-23T00:37:14;12.60;99.90
8832;DHT22;4452;50.756;4.472;2023-03-23T00:39:42;12.60;99.90
8832;DHT22;4452;50.756;4.472;2023-03-23T00:42:11;12.60;99.90
8832;DHT22;4452;50.756;4.472;2023-03-23T00:44:38;12.60;99.90
8832;DHT22;4452;50.756;4.472;2023-03-23T00:47:05;12.50;99.90
8832;DHT22;4452;50.756;4.472;2023-03-23T00:49:34;12.60;99.90
8832;DHT22;4452;50.756;4.472;2023-03-23T00:52:03;12.50;99.90
8832;DHT22;4452;50.756;4.472;2023-03-23T00:54:29;12.60;99.90
8832;DHT22;4452;50.756;4.472;2023-03-23T00:56:55;12.50;99.90
8832;DHT22;4452;50.756;4.472;2023-03-23T00:59:21;12.60;99.90
8832;DHT22;4452;50.756;4.472;2023-03-23T01:01:48;12.60;99.90
8832;DHT22;4452;50.756;4.472;2023-03-23T01:04:14;12.50;99.90
8832;DHT22;4452;50.756;4.472;2023-03-23T01:06:42;12.60;99.90
8832;DHT22;4452;50.756;4.472;2023-03-23T01:09:13;12.60;99.90
8832;DHT22;4452;50.756;4.472;2023-03-23T01:11:47;12.70;99.90
8832;DHT22;4452;50.756;4.472;2023-03-23T01:14:17;12.60;99.90
8832;DHT22;4452;50.756;4.472;2023-03-23T01:16:43;12.70;99.90
8832;DHT22;4452;50.756;4.472;2023-03-23T01:19:09;12.70;99.90
8832;DHT22;4452;50.756;4.472;2023-03-23T01:21:35;12.70;99.90
8832;DHT22;4452;50.756;4.472;2023-03-23T01:24:01;12.60;99.90
8832;DHT22;4452;50.756;4.472;2023-03-23T01:26:28;12.70;99.90
8832;DHT22;4452;50.756;4.472;2023-03-23T01:28:54;12.70;99.90
8832;DHT22;4452;50.756;4.472;2023-03-23T01:31:23;12.70;99.90
8832;DHT22;4452;50.756;4.472;2023-03-23T01:33:49;12.70;99.90
8832;DHT22;4452;50.756;4.472;2023-03-23T01:36:26;12.70;99.90
8832;DHT22;4452;50.756;4.472;2023-03-23T01:38:55;12.70;99.90
8832;DHT22;4452;50.756;4.472;2023-03-23T01:41:21;12.70;99.90
8832;DHT22;4452;50.756;4.472;2023-03-23T01:44:05;12.60;99.90
8832;DHT22;4452;50.756;4.472;2023-03-23T01:46:34;12.60;99.90
8832;DHT22;4452;50.756;4.472;2023-03-23T01:49:12;12.70;99.90
8832;DHT22;4452;50.756;4.472;2023-03-23T01:51:48;12.70;99.90
8832;DHT22;4452;50.756;4.472;2023-03-23T01:54:17;12.70;99.90
8832;DHT22;4452;50.756;4.472;2023-03-23T01:56:50;12.70;99.90
8832;DHT22;4452;50.756;4.472;2023-03-23T01:59:17;12.60;99.90
8832;DHT22;4452;50.756;4.472;2023-03-23T02:01:46;12.60;99.90
8832;DHT22;4452;50.756;4.472;2023-03-23T02:04:16;12.60;99.90
8832;DHT22;4452;50.756;4.472;2023-03-23T02:06:43;12.50;99.90
8832;DHT22;4452;50.756;4.472;2023-03-23T02:09:11;12.50;99.90
8832;DHT22;4452;50.756;4.472;2023-03-23T02:11:39;12.60;99.90
8832;DHT22;4452;50.756;4.472;2023-03-23T02:14:05;12.60;99.90
8832;DHT22;4452;50.756;4.472;2023-03-23T02:16:47;12.60;99.90
8832;DHT22;4452;50.756;4.472;2023-03-23T02:24:53;12.60;99.90
8832;DHT22;4452;50.756;4.472;2023-03-23T02:27:59;12.60;99.90
8832;DHT22;4452;50.756;4.472;2023-03-23T02:30:52;12.60;99.90
8832;DHT22;4452;50.756;4.472;2023-03-23T02:36:29;12.60;99.90
8832;DHT22;4452;50.756;4.472;2023-03-23T02:41:36;12.50;99.90
8832;DHT22;4452;50.756;4.472;2023-03-23T02:44:04;12.50;99.90
8832;DHT22;4452;50.756;4.472;2023-03-23T02:46:31;12.50;99.90
8832;DHT22;4452;50.756;4.472;2023-03-23T02:48:59;12.50;99.90
8832;DHT22;4452;50.756;4.472;2023-03-23T02:51:26;12.50;99.90
8832;DHT22;4452;50.756;4.472;2023-03-23T02:53:55;12.50;99.90
8832;DHT22;4452;50.756;4.472;2023-03-23T02:56:23;12.50;99.90
8832;DHT22;4452;50.756;4.472;2023-03-23T02:58:50;12.40;99.90
8832;DHT22;4452;50.756;4.472;2023-03-23T03:04:17;12.40;99.90
8832;DHT22;4452;50.756;4.472;2023-03-23T03:09:37;12.40;99.90
8832;DHT22;4452;50.756;4.472;2023-03-23T03:20:35;12.40;99.90
8832;DHT22;4452;50.756;4.472;2023-03-23T03:23:04;12.40;99.90
8832;DHT22;4452;50.756;4.472;2023-03-23T03:25:40;12.30;99.90
8832;DHT22;4452;50.756;4.472;2023-03-23T03:28:08;12.30;99.90
8832;DHT22;4452;50.756;4.472;2023-03-23T03:30:35;12.30;99.90
8832;DHT22;4452;50.756;4.472;2023-03-23T03:33:02;12.30;99.90
8832;DHT22;4452;50.756;4.472;2023-03-23T03:35:29;12.30;99.90
8832;DHT22;4452;50.756;4.472;2023-03-23T03:37:57;12.40;99.90
8832;DHT22;4452;50.756;4.472;2023-03-23T03:40:29;12.30;99.90
8832;DHT22;4452;50.756;4.472;2023-03-23T03:42:55;12.30;99.90
8832;DHT22;4452;50.756;4.472;2023-03-23T03:45:20;12.30;99.90
8832;DHT22;4452;50.756;4.472;2023-03-23T03:47:46;12.30;99.90
8832;DHT22;4452;50.756;4.472;2023-03-23T03:50:12;12.30;99.90
8832;DHT22;4452;50.756;4.472;2023-03-23T03:52:38;12.30;99.90
8832;DHT22;4452;50.756;4.472;2023-03-23T03:55:06;12.30;99.90
8832;DHT22;4452;50.756;4.472;2023-03-23T03:57:33;12.30;99.90
8832;DHT22;4452;50.756;4.472;2023-03-23T03:59:58;12.30;99.90
8832;DHT22;4452;50.756;4.472;2023-03-23T04:02:24;12.30;99.90
8832;DHT22;4452;50.756;4.472;2023-03-23T04:04:50;12.20;99.90
8832;DHT22;4452;50.756;4.472;2023-03-23T04:07:18;12.30;99.90
8832;DHT22;4452;50.756;4.472;2023-03-23T04:09:45;12.30;99.90
8832;DHT22;4452;50.756;4.472;2023-03-23T04:12:14;12.30;99.90
8832;DHT22;4452;50.756;4.472;2023-03-23T04:14:40;12.20;99.90
8832;DHT22;4452;50.756;4.472;2023-03-23T04:17:06;12.20;99.90
8832;DHT22;4452;50.756;4.472;2023-03-23T04:19:35;12.20;99.90
8832;DHT22;4452;50.756;4.472;2023-03-23T04:22:03;12.20;99.90
8832;DHT22;4452;50.756;4.472;2023-03-23T04:24:29;12.30;99.90
8832;DHT22;4452;50.756;4.472;2023-03-23T04:26:57;12.30;99.90
8832;DHT22;4452;50.756;4.472;2023-03-23T04:29:23;12.20;99.90
8832;DHT22;4452;50.756;4.472;2023-03-23T04:31:49;12.20;99.90
8832;DHT22;4452;50.756;4.472;2023-03-23T04:34:18;12.20;99.90
8832;DHT22;4452;50.756;4.472;2023-03-23T04:36:44;12.20;99.90
8832;DHT22;4452;50.756;4.472;2023-03-23T04:39:12;12.20;99.90
8832;DHT22;4452;50.756;4.472;2023-03-23T04:41:39;12.20;99.90
8832;DHT22;4452;50.756;4.472;2023-03-23T04:44:06;12.30;99.90
8832;DHT22;4452;50.756;4.472;2023-03-23T04:46:32;12.20;99.90
8832;DHT22;4452;50.756;4.472;2023-03-23T04:48:58;12.20;99.90
8832;DHT22;4452;50.756;4.472;2023-03-23T04:51:25;12.10;99.90
8832;DHT22;4452;50.756;4.472;2023-03-23T04:53:53;12.10;99.90
8832;DHT22;4452;50.756;4.472;2023-03-23T04:56:20;12.10;99.90
8832;DHT22;4452;50.756;4.472;2023-03-23T04:58:46;12.10;99.90
8832;DHT22;4452;50.756;4.472;2023-03-23T05:01:12;12.00;99.90
8832;DHT22;4452;50.756;4.472;2023-03-23T05:03:40;12.00;99.90
8832;DHT22;4452;50.756;4.472;2023-03-23T05:06:06;12.00;99.90
8832;DHT22;4452;50.756;4.472;2023-03-23T05:08:32;11.90;99.90
8832;DHT22;4452;50.756;4.472;2023-03-23T05:10:59;11.80;99.90
8832;DHT22;4452;50.756;4.472;2023-03-23T05:13:26;11.80;99.90
8832;DHT22;4452;50.756;4.472;2023-03-23T05:15:52;11.70;99.90
8832;DHT22;4452;50.756;4.472;2023-03-23T05:18:18;11.70;99.90
8832;DHT22;4452;50.756;4.472;2023-03-23T05:20:45;11.70;99.90
8832;DHT22;4452;50.756;4.472;2023-03-23T05:23:12;11.70;99.90
8832;DHT22;4452;50.756;4.472;2023-03-23T05:25:38;11.70;99.90
8832;DHT22;4452;50.756;4.472;2023-03-23T05:28:08;11.70;99.90
8832;DHT22;4452;50.756;4.472;2023-03-23T05:30:34;11.80;99.90
8832;DHT22;4452;50.756;4.472;2023-03-23T05:33:00;11.70;99.90
8832;DHT22;4452;50.756;4.472;2023-03-23T05:35:26;11.70;99.90
8832;DHT22;4452;50.756;4.472;2023-03-23T05:37:52;11.70;99.90
8832;DHT22;4452;50.756;4.472;2023-03-23T05:40:19;11.80;99.90
8832;DHT22;4452;50.756;4.472;2023-03-23T05:42:45;11.70;99.90
8832;DHT22;4452;50.756;4.472;2023-03-23T05:45:12;11.80;99.90
8832;DHT22;4452;50.756;4.472;2023-03-23T05:47:39;11.70;99.90
8832;DHT22;4452;50.756;4.472;2023-03-23T05:50:07;11.80;99.90
8832;DHT22;4452;50.756;4.472;2023-03-23T05:52:35;11.70;99.90
8832;DHT22;4452;50.756;4.472;2023-03-23T05:55:02;11.70;99.90
8832;DHT22;4452;50.756;4.472;2023-03-23T05:57:29;11.80;99.90
8832;DHT22;4452;50.756;4.472;2023-03-23T05:59:55;11.80;99.90
8832;DHT22;4452;50.756;4.472;2023-03-23T06:02:23;11.80;99.90
8832;DHT22;4452;50.756;4.472;2023-03-23T06:04:50;11.80;99.90
8832;DHT22;4452;50.756;4.472;2023-03-23T06:07:16;11.90;99.90
8832;DHT22;4452;50.756;4.472;2023-03-23T06:09:42;11.90;99.90
8832;DHT22;4452;50.756;4.472;2023-03-23T06:12:08;11.90;99.90
8832;DHT22;4452;50.756;4.472;2023-03-23T06:14:35;11.80;99.90
8832;DHT22;4452;50.756;4.472;2023-03-23T06:17:01;11.80;99.90
8832;DHT22;4452;50.756;4.472;2023-03-23T06:19:27;11.90;99.90
8832;DHT22;4452;50.756;4.472;2023-03-23T06:21:54;11.80;99.90
8832;DHT22;4452;50.756;4.472;2023-03-23T06:24:21;11.90;99.90
8832;DHT22;4452;50.756;4.472;2023-03-23T06:26:47;12.00;99.90
8832;DHT22;4452;50.756;4.472;2023-03-23T06:29:13;12.00;99.90
8832;DHT22;4452;50.756;4.472;2023-03-23T06:31:43;12.00;99.90
8832;DHT22;4452;50.756;4.472;2023-03-23T06:34:10;12.00;99.90
8832;DHT22;4452;50.756;4.472;2023-03-23T06:36:37;12.10;99.90
8832;DHT22;4452;50.756;4.472;2023-03-23T06:39:04;12.00;99.90
8832;DHT22;4452;50.756;4.472;2023-03-23T06:41:30;12.00;99.90
8832;DHT22;4452;50.756;4.472;2023-03-23T06:43:57;12.00;99.90
8832;DHT22;4452;50.756;4.472;2023-03-23T06:46:22;12.10;99.90
8832;DHT22;4452;50.756;4.472;2023-03-23T06:48:48;12.00;99.90
8832;DHT22;4452;50.756;4.472;2023-03-23T06:51:15;12.00;99.90
8832;DHT22;4452;50.756;4.472;2023-03-23T06:53:41;12.10;99.90
8832;DHT22;4452;50.756;4.472;2023-03-23T06:56:07;12.10;99.90
8832;DHT22;4452;50.756;4.472;2023-03-23T06:58:33;12.00;99.90
8832;DHT22;4452;50.756;4.472;2023-03-23T07:00:59;11.90;99.90
8832;DHT22;4452;50.756;4.472;2023-03-23T07:03:26;11.90;99.90
8832;DHT22;4452;50.756;4.472;2023-03-23T07:05:53;11.90;99.90
8832;DHT22;4452;50.756;4.472;2023-03-23T07:08:20;11.90;99.90
8832;DHT22;4452;50.756;4.472;2023-03-23T07:10:46;11.90;99.90
8832;DHT22;4452;50.756;4.472;2023-03-23T07:13:12;11.90;99.90
8832;DHT22;4452;50.756;4.472;2023-03-23T07:15:39;11.90;99.90
8832;DHT22;4452;50.756;4.472;2023-03-23T07:18:04;12.00;99.90
8832;DHT22;4452;50.756;4.472;2023-03-23T07:20:30;12.00;99.90
8832;DHT22;4452;50.756;4.472;2023-03-23T07:22:56;12.00;99.90
8832;DHT22;4452;50.756;4.472;2023-03-23T07:25:21;12.10;99.90
8832;DHT22;4452;50.756;4.472;2023-03-23T07:27:47;12.10;99.90
8832;DHT22;4452;50.756;4.472;2023-03-23T07:30:14;12.10;99.90
8832;DHT22;4452;50.756;4.472;2023-03-23T07:32:40;12.10;99.90
8832;DHT22;4452;50.756;4.472;2023-03-23T07:35:07;12.10;99.90
8832;DHT22;4452;50.756;4.472;2023-03-23T07:37:33;12.10;99.90
8832;DHT22;4452;50.756;4.472;2023-03-23T07:39:59;12.10;99.90
8832;DHT22;4452;50.756;4.472;2023-03-23T07:42:25;12.10;99.90
8832;DHT22;4452;50.756;4.472;2023-03-23T07:44:50;12.00;99.90
8832;DHT22;4452;50.756;4.472;2023-03-23T07:47:16;11.60;99.90
8832;DHT22;4452;50.756;4.472;2023-03-23T07:49:43;11.40;99.90
8832;DHT22;4452;50.756;4.472;2023-03-23T07:52:09;11.20;99.90
8832;DHT22;4452;50.756;4.472;2023-03-23T07:54:36;11.10;99.90
8832;DHT22;4452;50.756;4.472;2023-03-23T07:57:02;11.00;99.90
8832;DHT22;4452;50.756;4.472;2023-03-23T07:59:28;10.90;99.90
8832;DHT22;4452;50.756;4.472;2023-03-23T08:01:54;10.80;99.90
8832;DHT22;4452;50.756;4.472;2023-03-23T08:04:19;10.80;99.90
8832;DHT22;4452;50.756;4.472;2023-03-23T08:06:45;10.70;99.90
8832;DHT22;4452;50.756;4.472;2023-03-23T08:09:11;10.70;99.90
8832;DHT22;4452;50.756;4.472;2023-03-23T08:11:37;10.60;99.90
8832;DHT22;4452;50.756;4.472;2023-03-23T08:14:04;10.50;99.90
8832;DHT22;4452;50.756;4.472;2023-03-23T08:16:31;10.40;99.90
8832;DHT22;4452;50.756;4.472;2023-03-23T08:18:57;10.40;99.90
8832;DHT22;4452;50.756;4.472;2023-03-23T08:21:23;10.30;99.90
8832;DHT22;4452;50.756;4.472;2023-03-23T08:23:49;10.20;99.90
8832;DHT22;4452;50.756;4.472;2023-03-23T08:26:15;10.20;99.90
8832;DHT22;4452;50.756;4.472;2023-03-23T08:28:41;10.10;99.90
8832;DHT22;4452;50.756;4.472;2023-03-23T08:31:09;10.10;99.90
8832;DHT22;4452;50.756;4.472;2023-03-23T08:33:36;9.90;99.90
8832;DHT22;4452;50.756;4.472;2023-03-23T08:36:02;10.00;99.90
8832;DHT22;4452;50.756;4.472;2023-03-23T08:38:29;10.00;99.90
8832;DHT22;4452;50.756;4.472;2023-03-23T08:41:04;10.00;99.90
8832;DHT22;4452;50.756;4.472;2023-03-23T08:43:34;10.00;99.90
8832;DHT22;4452;50.756;4.472;2023-03-23T08:46:00;10.10;99.90
8832;DHT22;4452;50.756;4.472;2023-03-23T08:48:32;10.10;99.90
8832;DHT22;4452;50.756;4.472;2023-03-23T08:50:59;10.00;99.90
8832;DHT22;4452;50.756;4.472;2023-03-23T08:53:26;10.00;99.90
8832;DHT22;4452;50.756;4.472;2023-03-23T08:55:55;9.90;99.90
8832;DHT22;4452;50.756;4.472;2023-03-23T08:58:21;9.90;99.90
8832;DHT22;4452;50.756;4.472;2023-03-23T09:00:48;9.80;99.90
8832;DHT22;4452;50.756;4.472;2023-03-23T09:03:13;9.80;99.90
8832;DHT22;4452;50.756;4.472;2023-03-23T09:05:40;9.70;99.90
8832;DHT22;4452;50.756;4.472;2023-03-23T09:08:11;9.80;99.90
8832;DHT22;4452;50.756;4.472;2023-03-23T09:10:38;9.80;99.90
8832;DHT22;4452;50.756;4.472;2023-03-23T09:13:04;9.80;99.90
8832;DHT22;4452;50.756;4.472;2023-03-23T09:15:31;9.80;99.90
8832;DHT22;4452;50.756;4.472;2023-03-23T09:17:57;9.80;99.90
8832;DHT22;4452;50.756;4.472;2023-03-23T09:20:25;9.90;99.90
8832;DHT22;4452;50.756;4.472;2023-03-23T09:22:52;9.90;99.90
8832;DHT22;4452;50.756;4.472;2023-03-23T09:25:22;9.80;99.90
8832;DHT22;4452;50.756;4.472;2023-03-23T09:27:51;9.80;99.90
8832;DHT22;4452;50.756;4.472;2023-03-23T09:30:19;9.80;99.90
8832;DHT22;4452;50.756;4.472;2023-03-23T09:32:46;9.80;99.90
8832;DHT22;4452;50.756;4.472;2023-03-23T09:35:14;10.00;99.90
8832;DHT22;4452;50.756;4.472;2023-03-23T09:37:43;10.10;99.90
8832;DHT22;4452;50.756;4.472;2023-03-23T09:40:16;10.20;99.90
8832;DHT22;4452;50.756;4.472;2023-03-23T09:43:16;10.30;99.90
8832;DHT22;4452;50.756;4.472;2023-03-23T09:45:59;10.30;99.90
8832;DHT22;4452;50.756;4.472;2023-03-23T09:53:51;10.70;99.90
8832;DHT22;4452;50.756;4.472;2023-03-23T09:56:19;10.60;99.90
8832;DHT22;4452;50.756;4.472;2023-03-23T09:58:52;10.70;99.90
8832;DHT22;4452;50.756;4.472;2023-03-23T10:01:25;10.80;99.90
8832;DHT22;4452;50.756;4.472;2023-03-23T10:04:01;10.80;99.90
8832;DHT22;4452;50.756;4.472;2023-03-23T10:06:28;11.00;99.90
8832;DHT22;4452;50.756;4.472;2023-03-23T10:08:57;11.00;99.90
8832;DHT22;4452;50.756;4.472;2023-03-23T10:11:27;11.20;99.90
8832;DHT22;4452;50.756;4.472;2023-03-23T10:14:19;11.20;99.90
8832;DHT22;4452;50.756;4.472;2023-03-23T10:19:35;11.50;99.90
8832;DHT22;4452;50.756;4.472;2023-03-23T10:22:09;11.60;99.90
8832;DHT22;4452;50.756;4.472;2023-03-23T10:25:22;11.80;99.90
8832;DHT22;4452;50.756;4.472;2023-03-23T10:27:58;11.90;99.90
8832;DHT22;4452;50.756;4.472;2023-03-23T10:30:32;11.90;99.90
8832;DHT22;4452;50.756;4.472;2023-03-23T10:36:14;12.20;99.90
8832;DHT22;4452;50.756;4.472;2023-03-23T10:38:45;12.20;99.90
8832;DHT22;4452;50.756;4.472;2023-03-23T10:41:15;12.20;99.90
8832;DHT22;4452;50.756;4.472;2023-03-23T10:43:42;12.30;99.90
8832;DHT22;4452;50.756;4.472;2023-03-23T10:49:16;12.50;99.90
8832;DHT22;4452;50.756;4.472;2023-03-23T10:51:46;12.50;99.90
8832;DHT22;4452;50.756;4.472;2023-03-23T10:54:31;12.60;99.90
8832;DHT22;4452;50.756;4.472;2023-03-23T10:57:27;12.70;99.90
8832;DHT22;4452;50.756;4.472;2023-03-23T11:00:05;12.80;99.90
8832;DHT22;4452;50.756;4.472;2023-03-23T11:02:42;12.80;99.90
8832;DHT22;4452;50.756;4.472;2023-03-23T11:05:38;13.20;99.90
8832;DHT22;4452;50.756;4.472;2023-03-23T11:08:12;13.20;99.90
8832;DHT22;4452;50.756;4.472;2023-03-23T11:11:37;13.20;99.90
8832;DHT22;4452;50.756;4.472;2023-03-23T11:13:43;13.40;99.90
8832;DHT22;4452;50.756;4.472;2023-03-23T11:16:10;13.40;99.90
8832;DHT22;4452;50.756;4.472;2023-03-23T11:18:41;13.40;99.90
8832;DHT22;4452;50.756;4.472;2023-03-23T11:21:12;13.40;99.90
8832;DHT22;4452;50.756;4.472;2023-03-23T11:23:40;13.50;99.90
8832;DHT22;4452;50.756;4.472;2023-03-23T11:26:27;13.30;99.90
8832;DHT22;4452;50.756;4.472;2023-03-23T11:34:41;13.40;99.90
8832;DHT22;4452;50.756;4.472;2023-03-23T11:39:57;13.40;99.90
8832;DHT22;4452;50.756;4.472;2023-03-23T11:42:34;13.50;99.90
8832;DHT22;4452;50.756;4.472;2023-03-23T11:45:35;13.60;99.90
8832;DHT22;4452;50.756;4.472;2023-03-23T11:48:11;13.60;99.90
8832;DHT22;4452;50.756;4.472;2023-03-23T11:50:47;13.60;99.90
8832;DHT22;4452;50.756;4.472;2023-03-23T11:54:04;13.60;99.90
8832;DHT22;4452;50.756;4.472;2023-03-23T11:56:34;13.70;99.90
8832;DHT22;4452;50.756;4.472;2023-03-23T11:59:01;14.00;99.90
8832;DHT22;4452;50.756;4.472;2023-03-23T12:10:28;14.30;99.90
8832;DHT22;4452;50.756;4.472;2023-03-23T12:18:40;14.70;99.90
8832;DHT22;4452;50.756;4.472;2023-03-23T12:29:37;14.50;99.90
8832;DHT22;4452;50.756;4.472;2023-03-23T12:34:49;14.40;99.90
8832;DHT22;4452;50.756;4.472;2023-03-23T12:37:37;14.40;99.90
8832;DHT22;4452;50.756;4.472;2023-03-23T12:51:36;13.20;99.90
8832;DHT22;4452;50.756;4.472;2023-03-23T12:54:13;12.70;99.90
8832;DHT22;4452;50.756;4.472;2023-03-23T12:59:40;13.20;99.90
8832;DHT22;4452;50.756;4.472;2023-03-23T13:02:24;13.40;99.90
8832;DHT22;4452;50.756;4.472;2023-03-23T13:05:42;13.70;99.90
8832;DHT22;4452;50.756;4.472;2023-03-23T13:10:51;13.80;99.90
8832;DHT22;4452;50.756;4.472;2023-03-23T13:13:53;13.90;99.90
8832;DHT22;4452;50.756;4.472;2023-03-23T13:22:23;14.90;99.90
8832;DHT22;4452;50.756;4.472;2023-03-23T13:24:59;15.00;99.90
8832;DHT22;4452;50.756;4.472;2023-03-23T13:27:26;15.20;99.90
8832;DHT22;4452;50.756;4.472;2023-03-23T13:29:56;15.40;99.90
8832;DHT22;4452;50.756;4.472;2023-03-23T13:32:35;15.20;99.90
8832;DHT22;4452;50.756;4.472;2023-03-23T13:35:04;14.80;99.90
8832;DHT22;4452;50.756;4.472;2023-03-23T13:37:32;15.00;99.90
8832;DHT22;4452;50.756;4.472;2023-03-23T13:42:48;15.60;99.90
8832;DHT22;4452;50.756;4.472;2023-03-23T13:47:47;15.60;99.90
8832;DHT22;4452;50.756;4.472;2023-03-23T13:50:26;15.30;99.90
8832;DHT22;4452;50.756;4.472;2023-03-23T13:53:01;15.10;99.90
8832;DHT22;4452;50.756;4.472;2023-03-23T13:55:50;14.90;99.90
8832;DHT22;4452;50.756;4.472;2023-03-23T13:58:24;14.80;99.90
8832;DHT22;4452;50.756;4.472;2023-03-23T14:01:09;15.30;99.90
8832;DHT22;4452;50.756;4.472;2023-03-23T14:03:39;15.80;99.90
8832;DHT22;4452;50.756;4.472;2023-03-23T14:06:11;16.10;99.90
8832;DHT22;4452;50.756;4.472;2023-03-23T14:08:40;16.50;99.90
8832;DHT22;4452;50.756;4.472;2023-03-23T14:11:20;16.70;99.90
8832;DHT22;4452;50.756;4.472;2023-03-23T14:13:58;16.60;99.90
8832;DHT22;4452;50.756;4.472;2023-03-23T14:16:43;16.20;99.90
8832;DHT22;4452;50.756;4.472;2023-03-23T14:19:27;16.20;99.90
8832;DHT22;4452;50.756;4.472;2023-03-23T14:22:02;15.90;99.90
8832;DHT22;4452;50.756;4.472;2023-03-23T14:24:33;15.60;99.90
8832;DHT22;4452;50.756;4.472;2023-03-23T14:29:34;15.40;99.90
8832;DHT22;4452;50.756;4.472;2023-03-23T14:32:00;15.40;99.90
8832;DHT22;4452;50.756;4.472;2023-03-23T14:34:28;15.20;99.90
8832;DHT22;4452;50.756;4.472;2023-03-23T14:36:55;15.10;99.90
8832;DHT22;4452;50.756;4.472;2023-03-23T14:39:28;15.00;99.90
8832;DHT22;4452;50.756;4.472;2023-03-23T14:42:15;14.80;99.90
8832;DHT22;4452;50.756;4.472;2023-03-23T14:44:44;14.80;99.90
8832;DHT22;4452;50.756;4.472;2023-03-23T14:47:23;14.70;99.90
8832;DHT22;4452;50.756;4.472;2023-03-23T14:49:55;14.60;99.90
8832;DHT22;4452;50.756;4.472;2023-03-23T14:52:23;14.70;99.90
8832;DHT22;4452;50.756;4.472;2023-03-23T14:54:49;15.40;99.90
8832;DHT22;4452;50.756;4.472;2023-03-23T14:57:18;16.00;99.90
8832;DHT22;4452;50.756;4.472;2023-03-23T14:59:46;16.40;99.90
8832;DHT22;4452;50.756;4.472;2023-03-23T15:02:32;16.00;99.90
8832;DHT22;4452;50.756;4.472;2023-03-23T15:05:14;16.10;99.90
8832;DHT22;4452;50.756;4.472;2023-03-23T15:07:44;15.80;99.90
8832;DHT22;4452;50.756;4.472;2023-03-23T15:10:17;15.70;99.90
8832;DHT22;4452;50.756;4.472;2023-03-23T15:12:45;16.20;99.90
8832;DHT22;4452;50.756;4.472;2023-03-23T15:15:32;16.60;99.90
8832;DHT22;4452;50.756;4.472;2023-03-23T15:18:00;16.30;99.90
8832;DHT22;4452;50.756;4.472;2023-03-23T15:23:16;15.50;99.90
8832;DHT22;4452;50.756;4.472;2023-03-23T15:25:50;15.30;99.90
8832;DHT22;4452;50.756;4.472;2023-03-23T15:28:39;15.20;99.90
8832;DHT22;4452;50.756;4.472;2023-03-23T15:31:05;15.50;99.90
8832;DHT22;4452;50.756;4.472;2023-03-23T15:33:39;15.50;99.90
8832;DHT22;4452;50.756;4.472;2023-03-23T15:36:18;15.30;99.90
8832;DHT22;4452;50.756;4.472;2023-03-23T15:38:46;15.00;99.90
8832;DHT22;4452;50.756;4.472;2023-03-23T15:41:27;14.90;99.90
8832;DHT22;4452;50.756;4.472;2023-03-23T15:43:56;14.90;99.90
8832;DHT22;4452;50.756;4.472;2023-03-23T15:46:28;14.90;99.90
8832;DHT22;4452;50.756;4.472;2023-03-23T15:51:29;14.90;99.90
8832;DHT22;4452;50.756;4.472;2023-03-23T15:53:55;14.90;99.90
8832;DHT22;4452;50.756;4.472;2023-03-23T15:56:21;15.00;99.90
8832;DHT22;4452;50.756;4.472;2023-03-23T15:58:49;15.00;99.90
8832;DHT22;4452;50.756;4.472;2023-03-23T16:01:18;15.00;99.90
8832;DHT22;4452;50.756;4.472;2023-03-23T16:06:15;14.80;99.90
8832;DHT22;4452;50.756;4.472;2023-03-23T16:08:41;14.70;99.90
8832;DHT22;4452;50.756;4.472;2023-03-23T16:11:14;14.70;99.90
8832;DHT22;4452;50.756;4.472;2023-03-23T16:13:40;14.70;99.90
8832;DHT22;4452;50.756;4.472;2023-03-23T16:16:13;14.70;99.90
8832;DHT22;4452;50.756;4.472;2023-03-23T16:18:40;14.60;99.90
8832;DHT22;4452;50.756;4.472;2023-03-23T16:21:06;14.70;99.90
8832;DHT22;4452;50.756;4.472;2023-03-23T16:23:31;14.60;99.90
8832;DHT22;4452;50.756;4.472;2023-03-23T16:25:57;14.60;99.90
8832;DHT22;4452;50.756;4.472;2023-03-23T16:28:23;14.80;99.90
8832;DHT22;4452;50.756;4.472;2023-03-23T16:30:48;15.00;99.90
8832;DHT22;4452;50.756;4.472;2023-03-23T16:33:14;15.70;99.90
8832;DHT22;4452;50.756;4.472;2023-03-23T16:35:40;15.90;99.90
8832;DHT22;4452;50.756;4.472;2023-03-23T16:38:07;15.90;99.90
8832;DHT22;4452;50.756;4.472;2023-03-23T16:40:33;15.80;99.90
8832;DHT22;4452;50.756;4.472;2023-03-23T16:42:59;15.50;99.90
8832;DHT22;4452;50.756;4.472;2023-03-23T16:45:25;15.20;99.90
8832;DHT22;4452;50.756;4.472;2023-03-23T16:47:51;14.80;99.90
8832;DHT22;4452;50.756;4.472;2023-03-23T16:50:19;14.70;99.90
8832;DHT22;4452;50.756;4.472;2023-03-23T16:52:45;14.60;99.90
8832;DHT22;4452;50.756;4.472;2023-03-23T16:55:13;14.60;99.90
8832;DHT22;4452;50.756;4.472;2023-03-23T16:57:39;14.60;99.90
8832;DHT22;4452;50.756;4.472;2023-03-23T17:00:08;14.50;99.90
8832;DHT22;4452;50.756;4.472;2023-03-23T17:02:35;14.50;99.90
8832;DHT22;4452;50.756;4.472;2023-03-23T17:05:02;14.40;99.90
8832;DHT22;4452;50.756;4.472;2023-03-23T17:07:28;14.40;99.90
8832;DHT22;4452;50.756;4.472;2023-03-23T17:09:54;14.40;99.90
8832;DHT22;4452;50.756;4.472;2023-03-23T17:12:20;14.30;99.90
8832;DHT22;4452;50.756;4.472;2023-03-23T17:14:46;14.30;99.90
8832;DHT22;4452;50.756;4.472;2023-03-23T17:17:11;14.30;99.90
8832;DHT22;4452;50.756;4.472;2023-03-23T17:19:37;14.30;99.90
8832;DHT22;4452;50.756;4.472;2023-03-23T17:22:03;14.30;99.90
8832;DHT22;4452;50.756;4.472;2023-03-23T17:24:29;14.30;99.90
8832;DHT22;4452;50.756;4.472;2023-03-23T17:26:54;14.30;99.90
8832;DHT22;4452;50.756;4.472;2023-03-23T17:29:20;14.30;99.90
8832;DHT22;4452;50.756;4.472;2023-03-23T17:31:49;14.20;99.90
8832;DHT22;4452;50.756;4.472;2023-03-23T17:34:17;14.30;99.90
8832;DHT22;4452;50.756;4.472;2023-03-23T17:36:42;14.20;99.90
8832;DHT22;4452;50.756;4.472;2023-03-23T17:39:08;14.20;99.90
8832;DHT22;4452;50.756;4.472;2023-03-23T17:41:34;14.30;99.90
8832;DHT22;4452;50.756;4.472;2023-03-23T17:44:00;14.30;99.90
8832;DHT22;4452;50.756;4.472;2023-03-23T17:46:26;14.20;99.90
8832;DHT22;4452;50.756;4.472;2023-03-23T17:48:51;14.30;99.90
8832;DHT22;4452;50.756;4.472;2023-03-23T17:51:17;14.30;99.90
8832;DHT22;4452;50.756;4.472;2023-03-23T17:53:43;14.30;99.90
8832;DHT22;4452;50.756;4.472;2023-03-23T17:56:09;14.30;99.90
8832;DHT22;4452;50.756;4.472;2023-03-23T17:58:35;14.30;99.90
8832;DHT22;4452;50.756;4.472;2023-03-23T18:01:01;14.30;99.90
8832;DHT22;4452;50.756;4.472;2023-03-23T18:03:27;14.20;99.90
8832;DHT22;4452;50.756;4.472;2023-03-23T18:06:00;14.30;99.90
8832;DHT22;4452;50.756;4.472;2023-03-23T18:08:27;14.20;99.90
8832;DHT22;4452;50.756;4.472;2023-03-23T18:10:54;14.20;99.90